Time;durP1;ratioP1;P1;durP2;ratioP2;P2;SDS_P1;SDS_P2;PMS_P1;PMS_P2;Temp;Humidity;BMP_temperature;BMP_pressure;BME280_temperature;BME280_humidity;BME280_pressure;Samples;Min_cycle;Max_cycle;Signal;HPM_P1;HPM_P2
2023/07/01 00:06:12;;;;;;;8.93;4.10;;;;;;;;;;4927966;29;20206;-67
2023/07/01 00:16:43;;;;;;;9.90;4.67;;;;;;;;;;4945779;29;20176;-67
2023/07/01 00:23:46;;;;;;;10.50;5.30;;;;;;;;;;4950055;29;20220;-67
2023/07/01 00:30:24;;;;;;;9.00;5.03;;;;;;;;;;4968423;28;20259;-67
2023/07/01 00:36:51;;;;;;;7.43;4.73;;;;;;;;;;4968778;28;20176;-67
2023/07/01 00:43:53;;;;;;;8.13;4.40;;;;;;;;;;4968521;28;20304;-67
2023/07/01 00:50:19;;;;;;;9.40;4.47;;;;;;;;;;4968467;28;20305;-67
2023/07/01 01:32:43;;;;;;;6.37;4.17;;;;;;;;;;4989536;28;20219;-67
2023/07/01 01:39:10;;;;;;;6.90;4.47;;;;;;;;;;4988225;28;20179;-67
2023/07/01 01:45:36;;;;;;;7.13;4.37;;;;;;;;;;4991262;28;20247;-67
2023/07/01 01:52:15;;;;;;;7.20;4.17;;;;;;;;;;4991214;28;20576;-67
2023/07/01 01:58:41;;;;;;;9.93;4.63;;;;;;;;;;4959525;28;20286;-67
2023/07/01 02:05:43;;;;;;;6.77;4.07;;;;;;;;;;4963022;28;20286;-67
2023/07/01 02:12:45;;;;;;;10.67;4.57;;;;;;;;;;5010743;28;20214;-67
2023/07/01 02:19:12;;;;;;;7.57;4.20;;;;;;;;;;5010548;28;20210;-67
2023/07/01 02:25:49;;;;;;;9.70;4.47;;;;;;;;;;5010479;28;20203;-67
2023/07/01 02:32:15;;;;;;;9.50;4.03;;;;;;;;;;5010426;28;20239;-67
2023/07/01 02:38:42;;;;;;;6.57;4.30;;;;;;;;;;5010281;28;20182;-67
2023/07/01 02:45:09;;;;;;;6.80;3.93;;;;;;;;;;5009874;28;20730;-67
2023/07/01 02:51:36;;;;;;;6.40;4.20;;;;;;;;;;4977450;28;20211;-67
2023/07/01 03:02:34;;;;;;;9.03;4.20;;;;;;;;;;4952850;28;20248;-67
2023/07/01 03:09:00;;;;;;;9.87;4.20;;;;;;;;;;4968223;28;20208;-67
2023/07/01 03:15:26;;;;;;;7.23;3.87;;;;;;;;;;4948145;29;20225;-67
2023/07/01 03:21:52;;;;;;;7.80;3.50;;;;;;;;;;4948716;29;20240;-67
2023/07/01 03:32:17;;;;;;;6.90;3.50;;;;;;;;;;4979877;28;20643;-67
2023/07/01 03:38:55;;;;;;;6.43;3.10;;;;;;;;;;4989776;28;20528;-66
2023/07/01 03:45:15;;;;;;;4.60;2.93;;;;;;;;;;4989145;28;20236;-67
2023/07/01 03:51:54;;;;;;;6.27;3.23;;;;;;;;;;4989279;28;20256;-67
2023/07/01 03:58:57;;;;;;;6.53;2.90;;;;;;;;;;4989141;28;20175;-67
2023/07/01 04:05:24;;;;;;;6.53;2.77;;;;;;;;;;4987994;28;20184;-67
2023/07/01 04:12:27;;;;;;;8.80;3.00;;;;;;;;;;4969329;28;20729;-67
2023/07/01 04:19:08;;;;;;;6.40;3.20;;;;;;;;;;4968704;28;20924;-67
2023/07/01 04:25:34;;;;;;;6.90;2.70;;;;;;;;;;4938904;28;20311;-67
2023/07/01 04:36:55;;;;;;;6.03;2.70;;;;;;;;;;4988575;28;20184;-67
2023/07/01 04:43:21;;;;;;;6.70;2.47;;;;;;;;;;4988229;28;20255;-67
2023/07/01 04:49:47;;;;;;;6.63;2.67;;;;;;;;;;4966884;28;20187;-68
2023/07/01 04:56:14;;;;;;;6.37;2.40;;;;;;;;;;4986174;28;20263;-68
2023/07/01 05:02:41;;;;;;;7.13;3.10;;;;;;;;;;5005792;28;20213;-69
2023/07/01 05:09:08;;;;;;;7.17;2.53;;;;;;;;;;4970882;28;20749;-68
2023/07/01 05:15:35;;;;;;;4.00;2.30;;;;;;;;;;4988555;28;20596;-69
2023/07/01 05:22:02;;;;;;;5.83;1.90;;;;;;;;;;5009439;28;20179;-67
2023/07/01 05:28:28;;;;;;;6.93;2.10;;;;;;;;;;5009618;28;20242;-67
2023/07/01 05:35:04;;;;;;;4.10;2.17;;;;;;;;;;4966691;28;21300;-66
2023/07/01 05:46:03;;;;;;;3.30;1.50;;;;;;;;;;4846663;29;20232;-67
2023/07/01 05:52:24;;;;;;;3.17;1.63;;;;;;;;;;4872622;29;20241;-66
2023/07/01 06:07:02;;;;;;;4.37;1.73;;;;;;;;;;4948233;29;20995;-67
2023/07/01 06:13:28;;;;;;;4.57;1.60;;;;;;;;;;4931035;29;20181;-67
2023/07/01 06:24:24;;;;;;;3.93;1.50;;;;;;;;;;4930007;29;20218;-66
2023/07/01 06:34:50;;;;;;;2.57;1.37;;;;;;;;;;4949154;29;20225;-67
2023/07/01 06:45:49;;;;;;;3.47;1.70;;;;;;;;;;4928739;29;20243;-66
2023/07/01 06:52:15;;;;;;;6.87;1.63;;;;;;;;;;4948980;29;20233;-67
2023/07/01 07:06:17;;;;;;;3.03;1.33;;;;;;;;;;4989951;28;20277;-68
2023/07/01 07:12:43;;;;;;;2.40;1.20;;;;;;;;;;4996783;28;20642;-64
2023/07/01 07:19:09;;;;;;;4.27;1.33;;;;;;;;;;4997470;28;20226;-68
2023/07/01 07:25:36;;;;;;;2.73;1.13;;;;;;;;;;5009310;28;20214;-68
2023/07/01 07:32:02;;;;;;;4.53;1.10;;;;;;;;;;5008740;28;20186;-64
2023/07/01 07:42:35;;;;;;;4.37;1.20;;;;;;;;;;5008878;28;20761;-66
2023/07/01 07:49:04;;;;;;;3.97;1.27;;;;;;;;;;5008188;28;20651;-66
2023/07/01 07:56:08;;;;;;;8.13;1.70;;;;;;;;;;5008562;28;20730;-65
2023/07/01 08:03:12;;;;;;;3.00;1.17;;;;;;;;;;5008717;28;20224;-67
2023/07/01 08:14:09;;;;;;;3.90;1.40;;;;;;;;;;4914603;28;20225;-65
2023/07/01 08:24:34;;;;;;;4.20;1.40;;;;;;;;;;4915731;29;20237;-66
2023/07/01 08:42:22;;;;;;;3.50;1.10;;;;;;;;;;5007880;28;20171;-67
2023/07/01 08:48:49;;;;;;;9.37;1.90;;;;;;;;;;5007643;28;20195;-66
2023/07/01 08:55:15;;;;;;;4.23;1.30;;;;;;;;;;4974728;28;20297;-67
2023/07/01 09:01:42;;;;;;;2.37;1.10;;;;;;;;;;5008029;28;20313;-67
2023/07/01 09:08:09;;;;;;;3.00;1.20;;;;;;;;;;5007918;28;20203;-65
2023/07/01 09:14:54;;;;;;;3.13;1.07;;;;;;;;;;4975383;28;20233;-67
2023/07/01 09:21:19;;;;;;;3.00;1.47;;;;;;;;;;4937576;29;20419;-66
2023/07/01 09:27:49;;;;;;;3.07;1.10;;;;;;;;;;4959644;28;20282;-67
2023/07/01 09:42:52;;;;;;;2.57;1.10;;;;;;;;;;4946780;29;20295;-68
2023/07/01 09:49:18;;;;;;;2.67;1.10;;;;;;;;;;4946305;29;20245;-66
2023/07/01 09:59:44;;;;;;;2.40;1.17;;;;;;;;;;4879640;29;20668;-65
2023/07/01 10:06:11;;;;;;;4.60;1.10;;;;;;;;;;4991361;28;20641;-63
2023/07/01 10:17:06;;;;;;;2.07;1.23;;;;;;;;;;4971653;28;20230;-65
2023/07/01 10:23:45;;;;;;;5.10;1.40;;;;;;;;;;4971325;28;20260;-65
2023/07/01 10:30:12;;;;;;;2.23;1.10;;;;;;;;;;4971482;28;20249;-65
2023/07/01 10:44:45;;;;;;;3.17;1.30;;;;;;;;;;4993355;28;20767;-64
2023/07/01 10:51:12;;;;;;;3.47;1.40;;;;;;;;;;5004971;28;20191;-65
2023/07/01 10:57:38;;;;;;;3.60;1.37;;;;;;;;;;5012105;28;20701;-65
2023/07/01 11:04:04;;;;;;;2.13;1.50;;;;;;;;;;5009053;28;20211;-65
2023/07/01 11:10:31;;;;;;;3.97;1.47;;;;;;;;;;5009240;28;20578;-65
2023/07/01 11:21:29;;;;;;;3.93;1.40;;;;;;;;;;4860591;29;20491;-61
2023/07/01 11:27:49;;;;;;;5.30;1.93;;;;;;;;;;4889618;29;20691;-59
2023/07/01 11:34:17;;;;;;;4.03;1.97;;;;;;;;;;4889746;29;20225;-60
2023/07/01 11:45:15;;;;;;;2.73;1.60;;;;;;;;;;4908649;29;20188;-60
2023/07/01 11:56:18;;;;;;;3.10;1.80;;;;;;;;;;4823877;29;20758;-59
2023/07/01 12:29:03;;;;;;;4.67;2.33;;;;;;;;;;4888645;29;20262;-57
2023/07/01 12:43:52;;;;;;;4.10;2.00;;;;;;;;;;4945732;29;20228;-57
2023/07/01 12:54:55;;;;;;;5.07;1.70;;;;;;;;;;4926552;29;20649;-57
2023/07/01 13:27:26;;;;;;;5.40;1.83;;;;;;;;;;4865903;29;20235;-59
2023/07/01 14:23:35;;;;;;;5.63;2.67;;;;;;;;;;4876544;29;20292;-57
2023/07/01 15:23:32;;;;;;;3.97;2.20;;;;;;;;;;4969065;28;20227;-70
2023/07/01 15:30:04;;;;;;;2.97;2.37;;;;;;;;;;4930694;29;20238;-67
2023/07/01 15:36:32;;;;;;;5.40;2.60;;;;;;;;;;4947830;29;20776;-67
2023/07/01 15:51:11;;;;;;;3.63;2.63;;;;;;;;;;4975206;28;20232;-68
2023/07/01 15:57:36;;;;;;;3.60;2.80;;;;;;;;;;4987737;28;20248;-67
2023/07/01 16:04:04;;;;;;;3.53;2.63;;;;;;;;;;4977290;28;20227;-66
2023/07/01 16:10:30;;;;;;;5.33;2.40;;;;;;;;;;4987532;28;20250;-67
2023/07/01 16:16:57;;;;;;;4.77;2.57;;;;;;;;;;4987091;28;20224;-68
2023/07/01 16:23:25;;;;;;;3.50;2.77;;;;;;;;;;4982564;28;20723;-71
2023/07/01 16:52:39;;;;;;;4.07;2.40;;;;;;;;;;4967790;28;20203;-68
2023/07/01 17:03:11;;;;;;;4.90;3.30;;;;;;;;;;4984392;28;20282;-68
2023/07/01 17:09:46;;;;;;;4.60;2.80;;;;;;;;;;5004199;28;20669;-67
2023/07/01 17:16:19;;;;;;;3.97;3.27;;;;;;;;;;5007269;28;20223;-66
2023/07/01 17:22:45;;;;;;;4.83;2.70;;;;;;;;;;5002071;28;20195;-66
2023/07/01 17:36:19;;;;;;;4.33;2.60;;;;;;;;;;4992760;28;20171;-67
2023/07/01 17:42:45;;;;;;;6.97;3.10;;;;;;;;;;4984875;28;20769;-67
2023/07/01 17:53:16;;;;;;;5.00;3.30;;;;;;;;;;5000599;28;20556;-66
2023/07/01 18:04:12;;;;;;;23.83;16.53;;;;;;;;;;4971091;28;20279;-66
2023/07/01 18:10:39;;;;;;;5.80;3.53;;;;;;;;;;4971014;28;20184;-66
2023/07/01 18:17:05;;;;;;;5.47;4.00;;;;;;;;;;4988251;28;20243;-67
2023/07/01 18:27:57;;;;;;;6.90;3.33;;;;;;;;;;4988122;28;20307;-66
2023/07/01 18:34:25;;;;;;;3.93;3.13;;;;;;;;;;4988019;28;20191;-66
2023/07/01 18:40:51;;;;;;;4.20;3.00;;;;;;;;;;4961181;28;20655;-66
2023/07/01 18:51:45;;;;;;;5.00;3.33;;;;;;;;;;4900276;29;20392;-66
2023/07/01 18:58:12;;;;;;;4.77;3.70;;;;;;;;;;4896732;29;20502;-66
2023/07/01 19:04:38;;;;;;;7.27;3.53;;;;;;;;;;4928388;29;20621;-67
2023/07/01 19:11:04;;;;;;;4.43;3.87;;;;;;;;;;5007965;28;20206;-67
2023/07/01 19:17:30;;;;;;;7.03;4.20;;;;;;;;;;5008292;28;20227;-66
2023/07/01 19:23:57;;;;;;;6.00;4.27;;;;;;;;;;4999609;28;20266;-67
2023/07/01 19:30:27;;;;;;;5.47;4.07;;;;;;;;;;5007864;28;20175;-66
2023/07/01 19:36:54;;;;;;;7.83;4.50;;;;;;;;;;5007555;28;20206;-67
2023/07/01 19:43:23;;;;;;;7.23;4.90;;;;;;;;;;5007337;28;20992;-67
2023/07/01 19:53:50;;;;;;;12.57;5.03;;;;;;;;;;5010088;28;20219;-67
2023/07/01 20:00:10;;;;;;;6.87;4.90;;;;;;;;;;5012122;28;20187;-66
2023/07/01 20:07:13;;;;;;;5.90;4.80;;;;;;;;;;4966701;28;20204;-67
2023/07/01 20:13:50;;;;;;;6.73;4.83;;;;;;;;;;4986179;28;20588;-66
2023/07/01 20:20:27;;;;;;;6.63;4.77;;;;;;;;;;4985919;28;20175;-66
2023/07/01 20:26:54;;;;;;;6.43;5.10;;;;;;;;;;4985790;28;20779;-66
2023/07/01 20:33:24;;;;;;;6.70;5.07;;;;;;;;;;4986831;28;20179;-66
2023/07/01 20:39:50;;;;;;;7.87;6.17;;;;;;;;;;5007711;28;20286;-66
2023/07/01 20:46:54;;;;;;;7.70;5.83;;;;;;;;;;4987528;28;20175;-67
2023/07/01 20:57:51;;;;;;;14.20;8.43;;;;;;;;;;4987793;28;20259;-67
2023/07/01 21:09:09;;;;;;;9.83;6.90;;;;;;;;;;4880493;29;20312;-67
2023/07/01 21:19:28;;;;;;;13.77;7.43;;;;;;;;;;4940762;29;20177;-66
2023/07/01 21:26:36;;;;;;;9.73;7.50;;;;;;;;;;4927632;29;20318;-66
2023/07/01 21:33:02;;;;;;;13.07;7.77;;;;;;;;;;4946555;29;20189;-66
2023/07/01 21:39:28;;;;;;;9.77;7.30;;;;;;;;;;4987884;28;20259;-66
2023/07/01 21:45:56;;;;;;;10.57;7.63;;;;;;;;;;4987485;28;20224;-67
2023/07/01 22:11:59;;;;;;;10.23;7.83;;;;;;;;;;4929065;29;20185;-66
2023/07/01 22:18:18;;;;;;;9.73;6.67;;;;;;;;;;4929379;29;20348;-67
2023/07/01 22:28:48;;;;;;;8.67;6.70;;;;;;;;;;4930248;29;20181;-67
2023/07/01 22:35:16;;;;;;;9.03;6.77;;;;;;;;;;5010108;28;20192;-66
2023/07/01 22:41:42;;;;;;;8.83;6.83;;;;;;;;;;5009624;28;20376;-66
2023/07/01 22:48:08;;;;;;;6.90;6.20;;;;;;;;;;5010201;28;20681;-66
2023/07/01 22:58:40;;;;;;;10.30;7.30;;;;;;;;;;5009418;28;20226;-66
2023/07/01 23:05:07;;;;;;;8.90;6.17;;;;;;;;;;5009380;28;20283;-66
2023/07/01 23:11:34;;;;;;;7.43;6.20;;;;;;;;;;5009323;28;20226;-66
2023/07/01 23:18:00;;;;;;;7.17;5.30;;;;;;;;;;5009531;28;20170;-66
2023/07/01 23:24:28;;;;;;;6.03;5.43;;;;;;;;;;5009653;28;20279;-66
2023/07/01 23:30:58;;;;;;;6.47;5.57;;;;;;;;;;5009135;28;20210;-66
2023/07/01 23:37:25;;;;;;;8.17;5.77;;;;;;;;;;5008664;28;20227;-67
2023/07/01 23:43:51;;;;;;;7.60;6.03;;;;;;;;;;5008918;28;20610;-67
2023/07/01 23:50:17;;;;;;;7.13;5.97;;;;;;;;;;5008675;28;20174;-66
